createdAt,value
2018-04-25T00:00:08.029Z,15.57
2018-04-25T00:02:36.303Z,15.53
2018-04-25T00:05:06.406Z,15.48
2018-04-25T00:07:34.679Z,15.44
2018-04-25T00:10:06.795Z,15.32
2018-04-25T00:12:35.147Z,15.34
2018-04-25T00:15:07.260Z,15.32
2018-04-25T00:17:35.527Z,15.30
2018-04-25T00:20:06.386Z,15.27
2018-04-25T00:22:34.636Z,15.28
2018-04-25T00:25:07.695Z,15.24
2018-04-25T00:27:35.966Z,15.23
2018-04-25T00:30:07.391Z,15.21
2018-04-25T00:32:36.244Z,15.16
2018-04-25T00:35:06.969Z,15.16
2018-04-25T00:37:35.375Z,15.10
2018-04-25T00:40:07.287Z,15.15
2018-04-25T00:42:35.578Z,15.07
2018-04-25T00:45:08.447Z,15.05
2018-04-25T00:47:36.743Z,14.98
2018-04-25T00:50:06.872Z,15.04
2018-04-25T00:52:35.474Z,15.09
2018-04-25T00:55:07.170Z,15.07
2018-04-25T00:57:35.488Z,15.10
2018-04-25T01:00:07.736Z,15.08
2018-04-25T01:02:36.031Z,15.09
2018-04-25T01:05:07.873Z,15.13
2018-04-25T01:07:36.170Z,15.13
2018-04-25T01:10:06.115Z,15.15
2018-04-25T01:12:34.410Z,15.21
2018-04-25T01:15:07.247Z,15.18
2018-04-25T01:17:35.531Z,15.10
2018-04-25T01:20:06.167Z,15.14
2018-04-25T01:22:35.092Z,15.14
2018-04-25T01:25:09.006Z,15.19
2018-04-25T01:27:38.045Z,15.16
2018-04-25T01:30:06.322Z,15.17
2018-04-25T01:32:37.547Z,15.16
2018-04-25T01:35:06.983Z,15.16
2018-04-25T01:37:47.317Z,15.15
2018-04-25T01:40:15.571Z,15.16
2018-04-25T01:42:59.448Z,15.16
2018-04-25T01:49:04.040Z,15.15
2018-04-25T01:51:43.944Z,15.17
2018-04-25T01:54:23.881Z,15.17
2018-04-25T01:57:03.827Z,15.18
2018-04-25T01:59:43.813Z,15.17
2018-04-25T02:02:11.604Z,15.16
2018-04-25T02:04:40.091Z,15.18
2018-04-25T02:07:08.381Z,15.19
2018-04-25T02:09:36.655Z,15.21
2018-04-25T02:12:04.955Z,15.15
2018-04-25T02:14:33.623Z,15.15
2018-04-25T02:17:01.895Z,15.11
2018-04-25T02:19:30.188Z,15.06
2018-04-25T02:21:58.461Z,15.08
2018-04-25T02:24:26.744Z,15.05
2018-04-25T02:26:55.204Z,15.07
2018-04-25T02:29:23.479Z,15.07
2018-04-25T02:31:51.915Z,15.06
2018-04-25T02:34:20.190Z,15.22
2018-04-25T02:36:48.475Z,15.15
2018-04-25T02:39:17.021Z,15.10
2018-04-25T02:41:45.325Z,15.12
2018-04-25T02:44:13.610Z,15.15
2018-04-25T02:46:41.891Z,15.15
2018-04-25T02:49:10.333Z,15.15
2018-04-25T02:51:38.610Z,15.19
2018-04-25T02:54:06.891Z,15.17
2018-04-25T02:56:35.164Z,15.20
2018-04-25T02:59:03.576Z,15.23
2018-04-25T03:01:31.860Z,15.23
2018-04-25T03:04:00.599Z,15.18
2018-04-25T03:06:28.879Z,15.18
2018-04-25T03:08:57.164Z,15.15
2018-04-25T03:11:25.425Z,15.15
2018-04-25T03:13:53.707Z,15.12
2018-04-25T03:16:21.982Z,15.08
2018-04-25T03:18:50.267Z,15.11
2018-04-25T03:21:18.537Z,15.10
2018-04-25T03:23:46.831Z,15.10
2018-04-25T03:26:15.121Z,15.12
2018-04-25T03:28:43.398Z,15.09
2018-04-25T03:31:11.699Z,15.08
2018-04-25T03:33:39.974Z,15.14
2018-04-25T03:36:08.473Z,15.13
2018-04-25T03:38:36.781Z,15.12
2018-04-25T03:41:05.088Z,15.12
2018-04-25T03:43:33.477Z,15.13
2018-04-25T03:46:01.902Z,15.07
2018-04-25T03:48:30.178Z,15.03
2018-04-25T03:50:58.474Z,15.08
2018-04-25T03:53:27.072Z,15.05
2018-04-25T03:55:55.351Z,15.08
2018-04-25T03:58:23.640Z,15.07
2018-04-25T04:00:52.071Z,15.13
2018-04-25T04:03:20.331Z,15.04
2018-04-25T04:05:48.922Z,15.04
2018-04-25T04:08:17.187Z,14.99
2018-04-25T04:10:45.483Z,14.97
2018-04-25T04:13:13.747Z,15.00
2018-04-25T04:15:42.032Z,15.02
2018-04-25T04:18:10.305Z,15.02
2018-04-25T04:20:38.599Z,14.98
2018-04-25T04:23:06.870Z,14.96
2018-04-25T04:25:35.485Z,14.99
2018-04-25T04:28:03.768Z,15.00
2018-04-25T04:30:32.291Z,14.97
2018-04-25T04:33:00.566Z,14.98
2018-04-25T04:35:28.882Z,14.93
2018-04-25T04:37:57.155Z,14.93
2018-04-25T04:40:25.462Z,14.92
2018-04-25T04:42:53.735Z,14.94
2018-04-25T04:45:22.015Z,14.97
2018-04-25T04:47:50.576Z,14.96
2018-04-25T04:50:18.952Z,14.93
2018-04-25T04:52:47.269Z,14.90
2018-04-25T04:55:15.543Z,14.91
2018-04-25T04:57:43.830Z,14.91
2018-04-25T05:00:12.106Z,14.95
2018-04-25T05:02:40.411Z,14.92
2018-04-25T05:05:08.691Z,14.99
2018-04-25T05:07:37.041Z,15.11
2018-04-25T05:10:06.655Z,15.12
2018-04-25T05:12:34.943Z,15.25
2018-04-25T05:15:07.079Z,15.24
2018-04-25T05:17:35.374Z,15.26
2018-04-25T05:20:06.626Z,15.29
2018-04-25T05:22:34.923Z,15.27
2018-04-25T05:25:06.276Z,15.28
2018-04-25T05:27:34.792Z,15.51
2018-04-25T05:30:06.601Z,15.52
2018-04-25T05:32:35.083Z,15.50
2018-04-25T05:35:06.411Z,15.54
2018-04-25T05:37:34.695Z,15.60
2018-04-25T05:40:08.612Z,15.59
2018-04-25T05:42:36.902Z,15.51
2018-04-25T05:45:08.410Z,15.55
2018-04-25T05:47:36.688Z,15.70
2018-04-25T05:50:10.754Z,15.55
2018-04-25T05:52:39.317Z,15.65
2018-04-25T05:55:07.604Z,15.63
2018-04-25T05:57:36.354Z,15.51
2018-04-25T06:00:06.391Z,15.45
2018-04-25T06:02:34.684Z,15.61
2018-04-25T06:05:09.058Z,15.74
2018-04-25T06:07:37.326Z,15.64
2018-04-25T06:10:06.826Z,15.64
2018-04-25T06:12:35.137Z,15.84
2018-04-25T06:15:06.495Z,15.65
2018-04-25T06:17:34.889Z,15.64
2018-04-25T06:20:09.796Z,15.63
2018-04-25T06:22:38.072Z,15.70
2018-04-25T06:25:06.560Z,15.86
2018-04-25T06:27:34.954Z,15.80
2018-04-25T06:30:06.265Z,15.91
2018-04-25T06:32:34.558Z,16.03
2018-04-25T06:35:05.907Z,16.07
2018-04-25T06:37:34.190Z,16.15
2018-04-25T06:40:08.958Z,16.09
2018-04-25T06:42:37.237Z,15.94
2018-04-25T06:45:07.250Z,16.01
2018-04-25T06:47:36.026Z,16.09
2018-04-25T06:50:06.479Z,16.00
2018-04-25T06:52:34.764Z,15.94
2018-04-25T06:55:10.022Z,16.16
2018-04-25T06:57:38.630Z,16.17
2018-04-25T07:00:06.910Z,16.09
2018-04-25T07:02:35.211Z,16.04
2018-04-25T07:05:07.489Z,16.14
2018-04-25T07:07:35.971Z,15.97
2018-04-25T07:10:05.782Z,16.05
2018-04-25T07:12:34.076Z,16.15
2018-04-25T07:15:05.531Z,16.00
2018-04-25T07:17:33.814Z,15.98
2018-04-25T07:20:07.379Z,15.63
2018-04-25T07:22:36.006Z,15.66
2018-04-25T07:25:05.694Z,15.56
2018-04-25T07:27:33.967Z,15.53
2018-04-25T07:30:08.997Z,15.50
2018-04-25T07:32:37.274Z,15.65
2018-04-25T07:35:06.289Z,15.66
2018-04-25T07:37:34.555Z,15.82
2018-04-25T07:40:06.659Z,15.78
2018-04-25T07:42:35.119Z,15.71
2018-04-25T07:45:07.407Z,15.83
2018-04-25T07:47:35.677Z,15.88
2018-04-25T07:50:05.506Z,16.01
2018-04-25T07:52:33.966Z,16.26
2018-04-25T07:55:09.136Z,15.91
2018-04-25T07:57:37.484Z,15.97
2018-04-25T08:00:05.863Z,15.84
2018-04-25T08:02:34.129Z,15.72
2018-04-25T08:05:05.557Z,15.66
2018-04-25T08:07:34.006Z,15.48
2018-04-25T08:10:09.120Z,15.26
2018-04-25T08:12:49.276Z,15.03
2018-04-25T08:15:29.110Z,14.86
2018-04-25T08:18:09.047Z,14.58
2018-04-25T08:20:48.904Z,13.97
2018-04-25T08:23:17.370Z,14.16
2018-04-25T08:25:45.664Z,14.01
2018-04-25T08:28:13.946Z,14.05
2018-04-25T08:30:42.504Z,13.96
2018-04-25T08:33:10.913Z,13.95
2018-04-25T08:35:39.188Z,13.89
2018-04-25T08:38:07.484Z,13.94
2018-04-25T08:40:35.986Z,14.00
2018-04-25T08:43:04.446Z,14.34
2018-04-25T08:45:32.717Z,14.46
2018-04-25T08:48:01.002Z,14.66
2018-04-25T08:50:29.273Z,14.47
2018-04-25T08:52:57.583Z,14.83
2018-04-25T08:55:25.859Z,14.83
2018-04-25T08:57:54.171Z,14.84
2018-04-25T09:00:22.452Z,14.81
2018-04-25T09:02:50.749Z,14.93
2018-04-25T09:05:19.016Z,14.99
2018-04-25T09:07:47.571Z,15.30
2018-04-25T09:10:15.987Z,15.08
2018-04-25T09:12:44.467Z,14.99
2018-04-25T09:15:12.744Z,15.05
2018-04-25T09:17:41.072Z,15.06
2018-04-25T09:20:09.383Z,15.19
2018-04-25T09:22:37.657Z,15.29
2018-04-25T09:25:05.970Z,15.28
2018-04-25T09:27:34.246Z,15.28
2018-04-25T09:30:05.644Z,15.26
2018-04-25T09:32:33.913Z,15.28
2018-04-25T09:35:06.019Z,15.18
2018-04-25T09:37:34.294Z,15.33
2018-04-25T09:40:05.819Z,15.56
2018-04-25T09:42:34.120Z,15.67
2018-04-25T09:45:09.260Z,15.89
2018-04-25T09:47:37.775Z,15.87
2018-04-25T09:50:06.091Z,15.95
2018-04-25T09:52:34.367Z,15.57
2018-04-25T09:55:06.319Z,15.61
2018-04-25T09:57:34.870Z,15.71
2018-04-25T10:00:06.615Z,15.76
2018-04-25T10:02:36.803Z,15.91
2018-04-25T10:05:06.142Z,15.62
2018-04-25T10:07:34.526Z,15.59
2018-04-25T10:10:06.896Z,15.70
2018-04-25T10:12:35.185Z,15.78
2018-04-25T10:15:07.191Z,15.99
2018-04-25T10:17:35.485Z,16.41
2018-04-25T10:20:06.672Z,16.66
2018-04-25T10:22:35.323Z,17.06
2018-04-25T10:25:07.087Z,17.22
2018-04-25T10:27:35.607Z,17.61
2018-04-25T10:30:07.431Z,17.27
2018-04-25T10:32:35.836Z,17.26
2018-04-25T10:35:06.718Z,17.07
2018-04-25T10:37:35.016Z,16.79
2018-04-25T10:40:07.119Z,17.31
2018-04-25T10:42:35.420Z,17.45
2018-04-25T10:45:07.468Z,17.42
2018-04-25T10:47:35.749Z,17.68
2018-04-25T10:50:05.689Z,17.64
2018-04-25T10:52:34.082Z,17.84
2018-04-25T10:55:05.803Z,17.63
2018-04-25T10:57:34.398Z,17.76
2018-04-25T11:00:08.316Z,18.01
2018-04-25T11:02:37.034Z,17.87
2018-04-25T11:05:05.922Z,17.74
2018-04-25T11:07:34.206Z,17.95
2018-04-25T11:10:06.443Z,18.40
2018-04-25T11:12:34.728Z,17.83
2018-04-25T11:15:07.479Z,17.71
2018-04-25T11:17:35.758Z,17.35
2018-04-25T11:20:05.710Z,16.98
2018-04-25T11:22:34.034Z,17.06
2018-04-25T11:25:05.780Z,16.58
2018-04-25T11:27:34.101Z,16.73
2018-04-25T11:30:05.810Z,16.75
2018-04-25T11:32:34.094Z,16.72
2018-04-25T11:35:09.251Z,16.86
2018-04-25T11:37:37.565Z,17.04
2018-04-25T11:40:05.909Z,17.60
2018-04-25T11:42:34.530Z,18.53
2018-04-25T11:45:06.368Z,18.85
2018-04-25T11:47:34.639Z,18.70
2018-04-25T11:50:06.605Z,18.00
2018-04-25T11:52:34.874Z,17.45
2018-04-25T11:55:06.986Z,17.78
2018-04-25T11:57:35.268Z,18.55
2018-04-25T12:00:07.399Z,18.54
2018-04-25T12:02:35.679Z,18.62
2018-04-25T12:05:07.647Z,18.81
2018-04-25T12:07:36.180Z,18.86
2018-04-25T12:10:06.217Z,18.79
2018-04-25T12:12:34.903Z,18.50
2018-04-25T12:15:07.063Z,18.09
2018-04-25T12:17:35.361Z,18.19
2018-04-25T12:20:06.615Z,18.43
2018-04-25T12:22:35.011Z,18.44
2018-04-25T12:25:06.728Z,17.79
2018-04-25T12:27:35.144Z,17.94
2018-04-25T12:30:07.237Z,18.06
2018-04-25T12:32:35.533Z,17.78
2018-04-25T12:35:07.671Z,18.02
2018-04-25T12:37:35.978Z,18.46
2018-04-25T12:40:05.790Z,17.72
2018-04-25T12:42:34.087Z,17.47
2018-04-25T12:45:07.326Z,17.33
2018-04-25T12:47:35.639Z,17.59
2018-04-25T12:50:06.863Z,17.96
2018-04-25T12:52:35.188Z,18.10
2018-04-25T12:55:07.111Z,17.70
2018-04-25T12:57:35.418Z,18.09
2018-04-25T13:00:07.673Z,18.55
2018-04-25T13:02:35.955Z,18.45
2018-04-25T13:05:07.784Z,18.38
2018-04-25T13:07:36.059Z,18.37
2018-04-25T13:10:05.910Z,17.87
2018-04-25T13:12:34.195Z,17.80
2018-04-25T13:15:05.713Z,17.77
2018-04-25T13:17:34.275Z,17.53
2018-04-25T13:20:06.407Z,17.58
2018-04-25T13:22:34.698Z,17.55
2018-04-25T13:25:05.935Z,17.62
2018-04-25T13:27:34.220Z,17.64
2018-04-25T13:30:09.413Z,17.40
2018-04-25T13:32:38.579Z,17.50
2018-04-25T13:35:06.878Z,17.66
2018-04-25T13:37:35.228Z,17.35
2018-04-25T13:40:07.118Z,17.74
2018-04-25T13:42:36.041Z,18.20
2018-04-25T13:45:06.015Z,18.41
2018-04-25T13:47:34.575Z,17.74
2018-04-25T13:50:05.993Z,17.87
2018-04-25T13:52:34.350Z,17.81
2018-04-25T13:55:06.241Z,17.68
2018-04-25T13:57:34.526Z,17.74
2018-04-25T14:00:06.381Z,17.25
2018-04-25T14:02:34.654Z,17.36
2018-04-25T14:05:06.554Z,17.16
2018-04-25T14:07:35.059Z,17.76
2018-04-25T14:10:06.855Z,18.22
2018-04-25T14:12:35.395Z,18.83
2018-04-25T14:15:07.213Z,18.45
2018-04-25T14:17:35.500Z,18.44
2018-04-25T14:20:07.598Z,18.46
2018-04-25T14:22:35.879Z,18.70
2018-04-25T14:25:05.979Z,18.86
2018-04-25T14:27:34.265Z,19.24
2018-04-25T14:30:09.472Z,18.83
2018-04-25T14:32:37.735Z,18.36
2018-04-25T14:35:06.024Z,17.91
2018-04-25T14:37:34.327Z,18.22
2018-04-25T14:40:09.588Z,17.95
2018-04-25T14:42:37.878Z,17.81
2018-04-25T14:45:06.424Z,17.57
2018-04-25T14:47:34.800Z,17.84
2018-04-25T14:50:06.051Z,17.92
2018-04-25T14:52:34.307Z,18.12
2018-04-25T14:55:09.506Z,17.99
2018-04-25T14:57:38.027Z,18.15
2018-04-25T15:00:06.632Z,18.23
2018-04-25T15:02:35.158Z,17.97
2018-04-25T15:05:07.080Z,17.78
2018-04-25T15:07:35.952Z,17.47
2018-04-25T15:10:07.287Z,17.81
2018-04-25T15:12:35.579Z,18.05
2018-04-25T15:15:07.676Z,18.23
2018-04-25T15:17:35.950Z,17.92
2018-04-25T15:20:05.955Z,18.21
2018-04-25T15:22:34.225Z,18.24
2018-04-25T15:25:06.137Z,18.18
2018-04-25T15:27:34.403Z,18.32
2018-04-25T15:30:09.663Z,18.44
2018-04-25T15:32:38.159Z,18.40
2018-04-25T15:35:06.464Z,18.23
2018-04-25T15:37:34.755Z,18.19
2018-04-25T15:40:06.023Z,18.04
2018-04-25T15:42:38.154Z,17.76
2018-04-25T15:45:06.413Z,18.29
2018-04-25T15:47:34.695Z,17.75
2018-04-25T15:50:06.803Z,17.83
2018-04-25T15:52:35.090Z,18.17
2018-04-25T15:55:07.202Z,18.47
2018-04-25T15:57:35.480Z,18.60
2018-04-25T16:00:07.547Z,18.21
2018-04-25T16:02:35.840Z,18.05
2018-04-25T16:05:07.746Z,18.35
2018-04-25T16:07:36.051Z,18.20
2018-04-25T16:10:06.147Z,17.78
2018-04-25T16:12:34.504Z,17.71
2018-04-25T16:15:05.903Z,18.02
2018-04-25T16:17:35.117Z,18.28
2018-04-25T16:20:07.031Z,18.18
2018-04-25T16:22:35.417Z,18.07
2018-04-25T16:25:11.335Z,18.03
2018-04-25T16:27:39.624Z,18.42
2018-04-25T16:30:08.437Z,18.46
2018-04-25T16:32:36.751Z,18.20
2018-04-25T16:35:07.153Z,18.03
2018-04-25T16:37:35.424Z,18.12
2018-04-25T16:40:07.463Z,18.24
2018-04-25T16:42:35.738Z,18.24
2018-04-25T16:45:07.745Z,18.39
2018-04-25T16:47:36.028Z,18.15
2018-04-25T16:50:07.342Z,18.29
2018-04-25T16:52:35.613Z,17.72
2018-04-25T16:55:07.056Z,17.43
2018-04-25T16:57:35.339Z,17.21
2018-04-25T17:00:06.191Z,17.24
2018-04-25T17:02:38.379Z,17.48
2018-04-25T17:05:07.267Z,17.81
2018-04-25T17:07:35.538Z,17.88
2018-04-25T17:10:07.355Z,17.95
2018-04-25T17:12:35.690Z,17.56
2018-04-25T17:15:07.395Z,17.47
2018-04-25T17:17:35.671Z,17.45
2018-04-25T17:20:07.688Z,17.32
2018-04-25T17:22:35.948Z,17.34
2018-04-25T17:25:07.289Z,17.15
2018-04-25T17:27:36.039Z,16.96
2018-04-25T17:30:08.036Z,16.66
2018-04-25T17:32:36.329Z,16.89
2018-04-25T17:35:06.524Z,16.74
2018-04-25T17:37:34.803Z,16.56
2018-04-25T17:40:06.667Z,16.36
2018-04-25T17:42:35.078Z,16.41
2018-04-25T17:45:06.931Z,16.32
2018-04-25T17:47:35.249Z,16.36
2018-04-25T17:50:06.610Z,16.50
2018-04-25T17:52:35.060Z,16.20
2018-04-25T17:55:07.071Z,16.36
2018-04-25T17:57:35.417Z,16.40
2018-04-25T18:00:06.129Z,16.40
2018-04-25T18:02:34.438Z,16.33
2018-04-25T18:05:06.291Z,16.34
2018-04-25T18:07:34.595Z,16.42
2018-04-25T18:10:06.372Z,16.35
2018-04-25T18:12:35.114Z,16.36
2018-04-25T18:15:06.258Z,16.30
2018-04-25T18:17:34.586Z,16.20
2018-04-25T18:20:06.373Z,16.21
2018-04-25T18:22:34.665Z,15.91
2018-04-25T18:25:06.530Z,16.12
2018-04-25T18:27:34.808Z,16.10
2018-04-25T18:30:06.169Z,15.91
2018-04-25T18:32:34.442Z,15.86
2018-04-25T18:35:07.702Z,15.39
2018-04-25T18:37:36.039Z,15.60
2018-04-25T18:40:07.360Z,15.73
2018-04-25T18:42:35.626Z,15.54
2018-04-25T18:45:07.061Z,15.61
2018-04-25T18:47:35.344Z,15.51
2018-04-25T18:50:07.223Z,15.53
2018-04-25T18:52:35.500Z,15.55
2018-04-25T18:55:07.636Z,15.49
2018-04-25T18:57:35.927Z,15.58
2018-04-25T19:00:07.143Z,15.48
2018-04-25T19:02:36.477Z,15.31
2018-04-25T19:05:06.506Z,15.42
2018-04-25T19:07:34.761Z,15.37
2018-04-25T19:10:06.265Z,15.48
2018-04-25T19:12:34.538Z,15.30
2018-04-25T19:15:06.311Z,15.42
2018-04-25T19:17:34.599Z,15.46
2018-04-25T19:20:06.475Z,15.52
2018-04-25T19:22:34.748Z,15.61
2018-04-25T19:25:06.706Z,15.60
2018-04-25T19:27:35.043Z,15.67
2018-04-25T19:30:06.806Z,15.65
2018-04-25T19:32:35.108Z,15.66
2018-04-25T19:35:06.583Z,15.33
2018-04-25T19:37:34.916Z,15.21
2018-04-25T19:40:06.531Z,15.25
2018-04-25T19:42:34.843Z,15.36
2018-04-25T19:45:06.792Z,15.34
2018-04-25T19:47:35.125Z,15.26
2018-04-25T19:50:06.777Z,15.01
2018-04-25T19:52:35.030Z,15.02
2018-04-25T19:55:09.105Z,15.01
2018-04-25T19:57:37.396Z,14.85
2018-04-25T20:00:07.593Z,15.02
2018-04-25T20:02:35.908Z,15.06
2018-04-25T20:05:06.617Z,14.98
2018-04-25T20:07:34.984Z,14.94
2018-04-25T20:10:06.437Z,14.80
2018-04-25T20:12:34.747Z,14.96
2018-04-25T20:15:06.233Z,14.68
2018-04-25T20:17:34.642Z,14.57
2018-04-25T20:20:06.080Z,14.58
2018-04-25T20:22:34.282Z,14.69
2018-04-25T20:25:06.137Z,14.88
2018-04-25T20:27:34.403Z,14.65
2018-04-25T20:30:06.295Z,14.73
2018-04-25T20:32:34.598Z,14.80
2018-04-25T20:35:06.727Z,14.98
2018-04-25T20:37:35.057Z,14.85
2018-04-25T20:40:06.511Z,14.75
2018-04-25T20:42:34.778Z,14.67
2018-04-25T20:45:06.463Z,14.67
2018-04-25T20:47:34.915Z,14.55
2018-04-25T20:50:07.098Z,14.51
2018-04-25T20:52:35.407Z,14.30
2018-04-25T20:55:08.079Z,14.17
2018-04-25T20:57:36.395Z,14.18
2018-04-25T21:00:09.655Z,14.08
2018-04-25T21:02:38.106Z,14.14
2018-04-25T21:05:07.115Z,13.96
2018-04-25T21:07:35.404Z,14.06
2018-04-25T21:10:06.999Z,13.84
2018-04-25T21:12:36.024Z,13.96
2018-04-25T21:15:08.155Z,13.90
2018-04-25T21:17:36.422Z,14.04
2018-04-25T21:20:06.467Z,13.88
2018-04-25T21:22:34.775Z,13.91
2018-04-25T21:25:06.368Z,13.73
2018-04-25T21:27:34.686Z,13.58
2018-04-25T21:30:08.832Z,13.50
2018-04-25T21:32:37.239Z,13.74
2018-04-25T21:35:06.649Z,13.37
2018-04-25T21:37:34.951Z,13.57
2018-04-25T21:40:06.511Z,13.61
2018-04-25T21:42:34.807Z,13.67
2018-04-25T21:45:06.262Z,13.50
2018-04-25T21:47:35.119Z,13.42
2018-04-25T21:50:06.787Z,13.33
2018-04-25T21:52:35.081Z,13.54
2018-04-25T21:55:06.847Z,13.44
2018-04-25T21:57:35.177Z,13.24
2018-04-25T22:00:09.115Z,13.21
2018-04-25T22:02:37.426Z,12.97
2018-04-25T22:05:06.803Z,13.20
2018-04-25T22:07:35.111Z,13.04
2018-04-25T22:10:06.631Z,12.99
2018-04-25T22:12:34.973Z,12.94
2018-04-25T22:15:06.869Z,12.97
2018-04-25T22:17:35.184Z,13.03
2018-04-25T22:20:07.123Z,13.00
2018-04-25T22:22:35.763Z,12.89
2018-04-25T22:25:07.482Z,12.74
2018-04-25T22:27:35.806Z,12.85
2018-04-25T22:30:05.711Z,12.78
2018-04-25T22:32:34.068Z,12.73
2018-04-25T22:40:32.925Z,12.65
2018-04-25T22:48:31.330Z,12.53
2018-04-25T22:50:59.840Z,12.51
2018-04-25T22:53:28.130Z,12.42
2018-04-25T22:55:56.406Z,12.47
2018-04-25T22:58:24.734Z,12.41
2018-04-25T23:00:52.992Z,12.36
2018-04-25T23:03:21.322Z,12.38
2018-04-25T23:05:49.893Z,12.39
2018-04-25T23:08:18.644Z,12.36
2018-04-25T23:10:46.875Z,12.27
2018-04-25T23:13:15.152Z,12.14
2018-04-25T23:15:43.462Z,12.04
2018-04-25T23:18:11.735Z,12.33
2018-04-25T23:20:40.048Z,12.13
2018-04-25T23:23:08.316Z,12.11
2018-04-25T23:25:36.601Z,12.01
2018-04-25T23:28:04.892Z,11.81
2018-04-25T23:30:33.383Z,11.72
2018-04-25T23:33:01.692Z,11.64
2018-04-25T23:35:29.961Z,11.74
2018-04-25T23:37:58.305Z,11.84
2018-04-25T23:40:26.574Z,11.55
2018-04-25T23:42:54.892Z,11.59
2018-04-25T23:45:23.149Z,11.77
2018-04-25T23:47:51.442Z,11.50
2018-04-25T23:50:19.867Z,11.62
2018-04-25T23:52:48.171Z,11.53
2018-04-25T23:55:16.430Z,11.47
2018-04-25T23:57:44.736Z,11.53
